sensor_id;sensor_type;location;lat;lon;timestamp;P1;durP1;ratioP1;P2;durP2;ratioP2
15708;SDS011;7954;51.914;8.420;2023-05-18T00:00:17;4.07;;;2.77;;
15708;SDS011;7954;51.914;8.420;2023-05-18T00:02:45;5.03;;;2.43;;
15708;SDS011;7954;51.914;8.420;2023-05-18T00:05:13;5.17;;;2.90;;
15708;SDS011;7954;51.914;8.420;2023-05-18T00:07:43;6.23;;;2.93;;
15708;SDS011;7954;51.914;8.420;2023-05-18T00:10:13;4.87;;;2.60;;
15708;SDS011;7954;51.914;8.420;2023-05-18T00:12:41;4.90;;;2.50;;
15708;SDS011;7954;51.914;8.420;2023-05-18T00:15:09;5.70;;;2.90;;
15708;SDS011;7954;51.914;8.420;2023-05-18T00:17:38;4.30;;;2.50;;
15708;SDS011;7954;51.914;8.420;2023-05-18T00:20:08;6.63;;;3.00;;
15708;SDS011;7954;51.914;8.420;2023-05-18T00:22:36;4.97;;;2.83;;
15708;SDS011;7954;51.914;8.420;2023-05-18T00:25:08;6.93;;;3.67;;
15708;SDS011;7954;51.914;8.420;2023-05-18T00:27:37;4.67;;;2.27;;
15708;SDS011;7954;51.914;8.420;2023-05-18T00:30:06;4.47;;;2.50;;
15708;SDS011;7954;51.914;8.420;2023-05-18T00:32:34;3.40;;;2.33;;
15708;SDS011;7954;51.914;8.420;2023-05-18T00:35:02;4.97;;;2.80;;
15708;SDS011;7954;51.914;8.420;2023-05-18T00:37:31;4.40;;;2.50;;
15708;SDS011;7954;51.914;8.420;2023-05-18T00:39:59;4.83;;;2.80;;
15708;SDS011;7954;51.914;8.420;2023-05-18T00:42:27;4.70;;;2.43;;
15708;SDS011;7954;51.914;8.420;2023-05-18T00:44:56;5.77;;;3.00;;
15708;SDS011;7954;51.914;8.420;2023-05-18T00:47:24;5.23;;;3.00;;
15708;SDS011;7954;51.914;8.420;2023-05-18T00:49:52;4.43;;;2.83;;
15708;SDS011;7954;51.914;8.420;2023-05-18T00:52:20;4.67;;;2.60;;
15708;SDS011;7954;51.914;8.420;2023-05-18T00:54:49;7.13;;;3.00;;
15708;SDS011;7954;51.914;8.420;2023-05-18T00:57:19;4.03;;;2.53;;
15708;SDS011;7954;51.914;8.420;2023-05-18T00:59:47;4.93;;;2.93;;
15708;SDS011;7954;51.914;8.420;2023-05-18T01:02:17;5.40;;;2.80;;
15708;SDS011;7954;51.914;8.420;2023-05-18T01:04:45;3.60;;;2.97;;
15708;SDS011;7954;51.914;8.420;2023-05-18T01:07:13;3.73;;;3.13;;
15708;SDS011;7954;51.914;8.420;2023-05-18T01:09:42;8.57;;;3.50;;
15708;SDS011;7954;51.914;8.420;2023-05-18T01:12:11;4.57;;;2.90;;
15708;SDS011;7954;51.914;8.420;2023-05-18T01:14:47;4.50;;;2.90;;
15708;SDS011;7954;51.914;8.420;2023-05-18T01:17:22;4.90;;;3.10;;
15708;SDS011;7954;51.914;8.420;2023-05-18T01:20:03;5.87;;;3.40;;
15708;SDS011;7954;51.914;8.420;2023-05-18T01:22:48;4.30;;;2.70;;
15708;SDS011;7954;51.914;8.420;2023-05-18T01:25:31;3.83;;;3.07;;
15708;SDS011;7954;51.914;8.420;2023-05-18T01:28:05;7.10;;;3.33;;
15708;SDS011;7954;51.914;8.420;2023-05-18T01:30:39;4.47;;;3.27;;
15708;SDS011;7954;51.914;8.420;2023-05-18T01:33:09;5.13;;;3.20;;
15708;SDS011;7954;51.914;8.420;2023-05-18T01:35:39;3.67;;;2.97;;
15708;SDS011;7954;51.914;8.420;2023-05-18T01:38:14;4.77;;;3.07;;
15708;SDS011;7954;51.914;8.420;2023-05-18T01:40:45;4.00;;;2.97;;
15708;SDS011;7954;51.914;8.420;2023-05-18T01:43:21;6.90;;;3.50;;
15708;SDS011;7954;51.914;8.420;2023-05-18T01:45:55;4.80;;;3.40;;
15708;SDS011;7954;51.914;8.420;2023-05-18T01:48:27;5.17;;;2.93;;
15708;SDS011;7954;51.914;8.420;2023-05-18T01:50:56;3.97;;;3.00;;
15708;SDS011;7954;51.914;8.420;2023-05-18T01:53:26;5.57;;;3.30;;
15708;SDS011;7954;51.914;8.420;2023-05-18T01:56:00;5.67;;;3.63;;
15708;SDS011;7954;51.914;8.420;2023-05-18T01:58:32;6.47;;;3.17;;
15708;SDS011;7954;51.914;8.420;2023-05-18T02:01:00;4.07;;;3.23;;
15708;SDS011;7954;51.914;8.420;2023-05-18T02:03:30;5.10;;;3.07;;
15708;SDS011;7954;51.914;8.420;2023-05-18T02:05:58;5.40;;;3.23;;
15708;SDS011;7954;51.914;8.420;2023-05-18T02:08:26;4.97;;;2.90;;
15708;SDS011;7954;51.914;8.420;2023-05-18T02:10:54;5.37;;;3.10;;
15708;SDS011;7954;51.914;8.420;2023-05-18T02:13:21;3.10;;;2.73;;
15708;SDS011;7954;51.914;8.420;2023-05-18T02:15:51;3.30;;;2.47;;
15708;SDS011;7954;51.914;8.420;2023-05-18T02:18:19;5.20;;;3.10;;
15708;SDS011;7954;51.914;8.420;2023-05-18T02:20:47;5.07;;;3.53;;
15708;SDS011;7954;51.914;8.420;2023-05-18T02:23:16;3.90;;;2.63;;
15708;SDS011;7954;51.914;8.420;2023-05-18T02:25:44;5.27;;;3.07;;
15708;SDS011;7954;51.914;8.420;2023-05-18T02:28:12;6.30;;;3.23;;
15708;SDS011;7954;51.914;8.420;2023-05-18T02:30:40;5.57;;;3.20;;
15708;SDS011;7954;51.914;8.420;2023-05-18T02:33:09;5.40;;;3.27;;
15708;SDS011;7954;51.914;8.420;2023-05-18T02:35:38;5.53;;;3.00;;
15708;SDS011;7954;51.914;8.420;2023-05-18T02:38:06;3.27;;;2.50;;
15708;SDS011;7954;51.914;8.420;2023-05-18T02:40:34;3.00;;;2.70;;
15708;SDS011;7954;51.914;8.420;2023-05-18T02:43:02;5.03;;;2.80;;
15708;SDS011;7954;51.914;8.420;2023-05-18T02:45:30;4.30;;;2.80;;
15708;SDS011;7954;51.914;8.420;2023-05-18T02:47:58;3.93;;;2.70;;
15708;SDS011;7954;51.914;8.420;2023-05-18T02:50:27;4.00;;;2.90;;
15708;SDS011;7954;51.914;8.420;2023-05-18T02:52:56;7.13;;;3.00;;
15708;SDS011;7954;51.914;8.420;2023-05-18T02:55:23;4.03;;;2.80;;
15708;SDS011;7954;51.914;8.420;2023-05-18T02:57:51;5.17;;;2.87;;
15708;SDS011;7954;51.914;8.420;2023-05-18T03:00:22;5.30;;;2.80;;
15708;SDS011;7954;51.914;8.420;2023-05-18T03:02:51;5.17;;;2.73;;
15708;SDS011;7954;51.914;8.420;2023-05-18T03:05:19;7.43;;;2.97;;
15708;SDS011;7954;51.914;8.420;2023-05-18T03:07:50;5.33;;;2.60;;
15708;SDS011;7954;51.914;8.420;2023-05-18T03:10:20;5.20;;;2.40;;
15708;SDS011;7954;51.914;8.420;2023-05-18T03:12:48;5.87;;;2.63;;
15708;SDS011;7954;51.914;8.420;2023-05-18T03:15:16;5.50;;;2.43;;
15708;SDS011;7954;51.914;8.420;2023-05-18T03:17:44;4.97;;;2.60;;
15708;SDS011;7954;51.914;8.420;2023-05-18T03:20:13;5.23;;;2.50;;
15708;SDS011;7954;51.914;8.420;2023-05-18T03:22:43;4.20;;;2.60;;
15708;SDS011;7954;51.914;8.420;2023-05-18T03:25:12;5.60;;;2.57;;
15708;SDS011;7954;51.914;8.420;2023-05-18T03:27:40;6.27;;;2.67;;
15708;SDS011;7954;51.914;8.420;2023-05-18T03:30:08;5.70;;;3.17;;
15708;SDS011;7954;51.914;8.420;2023-05-18T03:32:37;5.67;;;2.57;;
15708;SDS011;7954;51.914;8.420;2023-05-18T03:35:07;5.93;;;2.60;;
15708;SDS011;7954;51.914;8.420;2023-05-18T03:37:36;6.67;;;2.73;;
15708;SDS011;7954;51.914;8.420;2023-05-18T03:40:08;4.23;;;2.17;;
15708;SDS011;7954;51.914;8.420;2023-05-18T03:42:39;4.70;;;2.67;;
15708;SDS011;7954;51.914;8.420;2023-05-18T03:45:08;4.50;;;2.30;;
15708;SDS011;7954;51.914;8.420;2023-05-18T03:47:37;4.10;;;2.40;;
15708;SDS011;7954;51.914;8.420;2023-05-18T03:50:06;5.63;;;2.57;;
15708;SDS011;7954;51.914;8.420;2023-05-18T03:52:34;4.43;;;2.67;;
15708;SDS011;7954;51.914;8.420;2023-05-18T03:55:02;5.80;;;3.17;;
15708;SDS011;7954;51.914;8.420;2023-05-18T03:57:31;5.37;;;2.57;;
15708;SDS011;7954;51.914;8.420;2023-05-18T04:00:01;2.87;;;1.90;;
15708;SDS011;7954;51.914;8.420;2023-05-18T04:02:39;5.00;;;2.50;;
15708;SDS011;7954;51.914;8.420;2023-05-18T04:05:07;3.90;;;2.27;;
15708;SDS011;7954;51.914;8.420;2023-05-18T04:07:36;6.00;;;2.83;;
15708;SDS011;7954;51.914;8.420;2023-05-18T04:10:09;3.20;;;2.47;;
15708;SDS011;7954;51.914;8.420;2023-05-18T04:12:38;5.20;;;2.53;;
15708;SDS011;7954;51.914;8.420;2023-05-18T04:15:10;4.80;;;2.67;;
15708;SDS011;7954;51.914;8.420;2023-05-18T04:17:40;4.70;;;2.40;;
15708;SDS011;7954;51.914;8.420;2023-05-18T04:20:11;4.10;;;2.57;;
15708;SDS011;7954;51.914;8.420;2023-05-18T04:22:40;8.00;;;2.50;;
15708;SDS011;7954;51.914;8.420;2023-05-18T04:25:12;4.23;;;2.30;;
15708;SDS011;7954;51.914;8.420;2023-05-18T04:27:42;5.90;;;2.63;;
15708;SDS011;7954;51.914;8.420;2023-05-18T04:30:13;4.43;;;2.40;;
15708;SDS011;7954;51.914;8.420;2023-05-18T04:32:44;4.37;;;2.43;;
15708;SDS011;7954;51.914;8.420;2023-05-18T04:35:15;3.63;;;2.50;;
15708;SDS011;7954;51.914;8.420;2023-05-18T04:37:44;4.80;;;2.40;;
15708;SDS011;7954;51.914;8.420;2023-05-18T04:40:12;2.40;;;1.83;;
15708;SDS011;7954;51.914;8.420;2023-05-18T04:42:42;2.73;;;2.47;;
15708;SDS011;7954;51.914;8.420;2023-05-18T04:45:15;6.67;;;2.50;;
15708;SDS011;7954;51.914;8.420;2023-05-18T04:47:45;4.47;;;2.30;;
15708;SDS011;7954;51.914;8.420;2023-05-18T04:50:19;5.10;;;2.43;;
15708;SDS011;7954;51.914;8.420;2023-05-18T04:52:49;4.43;;;2.30;;
15708;SDS011;7954;51.914;8.420;2023-05-18T04:55:18;5.07;;;2.57;;
15708;SDS011;7954;51.914;8.420;2023-05-18T04:57:54;4.33;;;2.20;;
15708;SDS011;7954;51.914;8.420;2023-05-18T05:00:24;4.50;;;2.10;;
15708;SDS011;7954;51.914;8.420;2023-05-18T05:02:54;5.03;;;2.27;;
15708;SDS011;7954;51.914;8.420;2023-05-18T05:05:23;4.30;;;2.00;;
15708;SDS011;7954;51.914;8.420;2023-05-18T05:07:53;4.10;;;2.60;;
15708;SDS011;7954;51.914;8.420;2023-05-18T05:10:22;5.53;;;2.43;;
15708;SDS011;7954;51.914;8.420;2023-05-18T05:12:51;4.93;;;2.37;;
15708;SDS011;7954;51.914;8.420;2023-05-18T05:15:19;7.00;;;2.40;;
15708;SDS011;7954;51.914;8.420;2023-05-18T05:17:49;5.30;;;2.03;;
15708;SDS011;7954;51.914;8.420;2023-05-18T05:20:16;4.13;;;2.13;;
15708;SDS011;7954;51.914;8.420;2023-05-18T05:22:44;4.90;;;2.60;;
15708;SDS011;7954;51.914;8.420;2023-05-18T05:25:13;4.80;;;2.33;;
15708;SDS011;7954;51.914;8.420;2023-05-18T05:27:41;5.87;;;2.07;;
15708;SDS011;7954;51.914;8.420;2023-05-18T05:30:09;4.23;;;1.90;;
15708;SDS011;7954;51.914;8.420;2023-05-18T05:32:37;5.33;;;2.27;;
15708;SDS011;7954;51.914;8.420;2023-05-18T05:35:07;4.00;;;1.80;;
15708;SDS011;7954;51.914;8.420;2023-05-18T05:37:36;4.67;;;2.30;;
15708;SDS011;7954;51.914;8.420;2023-05-18T05:40:06;3.77;;;2.20;;
15708;SDS011;7954;51.914;8.420;2023-05-18T05:42:35;4.53;;;2.43;;
15708;SDS011;7954;51.914;8.420;2023-05-18T05:45:03;4.40;;;2.07;;
15708;SDS011;7954;51.914;8.420;2023-05-18T05:47:32;4.53;;;2.17;;
15708;SDS011;7954;51.914;8.420;2023-05-18T05:50:01;5.70;;;2.10;;
15708;SDS011;7954;51.914;8.420;2023-05-18T05:52:31;6.70;;;2.60;;
15708;SDS011;7954;51.914;8.420;2023-05-18T05:54:59;4.30;;;1.93;;
15708;SDS011;7954;51.914;8.420;2023-05-18T05:57:27;5.53;;;1.83;;
15708;SDS011;7954;51.914;8.420;2023-05-18T05:59:56;5.27;;;2.50;;
15708;SDS011;7954;51.914;8.420;2023-05-18T06:02:25;6.20;;;2.37;;
15708;SDS011;7954;51.914;8.420;2023-05-18T06:04:53;4.70;;;1.90;;
15708;SDS011;7954;51.914;8.420;2023-05-18T06:07:21;5.10;;;2.03;;
15708;SDS011;7954;51.914;8.420;2023-05-18T06:09:50;7.43;;;2.40;;
15708;SDS011;7954;51.914;8.420;2023-05-18T06:12:18;4.13;;;1.70;;
15708;SDS011;7954;51.914;8.420;2023-05-18T06:14:46;5.83;;;1.90;;
15708;SDS011;7954;51.914;8.420;2023-05-18T06:17:14;4.17;;;1.97;;
15708;SDS011;7954;51.914;8.420;2023-05-18T06:19:42;6.10;;;2.27;;
15708;SDS011;7954;51.914;8.420;2023-05-18T06:22:10;4.97;;;2.30;;
15708;SDS011;7954;51.914;8.420;2023-05-18T06:24:38;2.73;;;1.80;;
15708;SDS011;7954;51.914;8.420;2023-05-18T06:27:07;4.77;;;2.27;;
15708;SDS011;7954;51.914;8.420;2023-05-18T06:29:35;6.77;;;2.13;;
15708;SDS011;7954;51.914;8.420;2023-05-18T06:32:03;4.10;;;2.37;;
15708;SDS011;7954;51.914;8.420;2023-05-18T06:34:32;5.60;;;2.30;;
15708;SDS011;7954;51.914;8.420;2023-05-18T06:37:03;7.10;;;2.60;;
15708;SDS011;7954;51.914;8.420;2023-05-18T06:39:31;6.90;;;2.53;;
15708;SDS011;7954;51.914;8.420;2023-05-18T06:41:58;2.80;;;1.90;;
15708;SDS011;7954;51.914;8.420;2023-05-18T06:44:28;4.67;;;2.30;;
15708;SDS011;7954;51.914;8.420;2023-05-18T06:46:58;4.93;;;2.20;;
15708;SDS011;7954;51.914;8.420;2023-05-18T06:49:27;7.73;;;2.40;;
15708;SDS011;7954;51.914;8.420;2023-05-18T06:51:54;6.43;;;2.13;;
15708;SDS011;7954;51.914;8.420;2023-05-18T06:54:22;4.80;;;2.13;;
15708;SDS011;7954;51.914;8.420;2023-05-18T06:56:50;5.30;;;2.33;;
15708;SDS011;7954;51.914;8.420;2023-05-18T06:59:18;6.77;;;2.10;;
15708;SDS011;7954;51.914;8.420;2023-05-18T07:01:48;6.00;;;2.33;;
15708;SDS011;7954;51.914;8.420;2023-05-18T07:04:16;5.87;;;2.10;;
15708;SDS011;7954;51.914;8.420;2023-05-18T07:06:44;5.83;;;2.10;;
15708;SDS011;7954;51.914;8.420;2023-05-18T07:09:12;5.23;;;2.10;;
15708;SDS011;7954;51.914;8.420;2023-05-18T07:11:41;5.53;;;2.27;;
15708;SDS011;7954;51.914;8.420;2023-05-18T07:14:10;5.13;;;2.40;;
15708;SDS011;7954;51.914;8.420;2023-05-18T07:16:38;5.27;;;1.93;;
15708;SDS011;7954;51.914;8.420;2023-05-18T07:19:08;3.70;;;2.03;;
15708;SDS011;7954;51.914;8.420;2023-05-18T07:21:36;3.87;;;2.10;;
15708;SDS011;7954;51.914;8.420;2023-05-18T07:24:05;6.93;;;2.30;;
15708;SDS011;7954;51.914;8.420;2023-05-18T07:26:33;5.47;;;2.60;;
15708;SDS011;7954;51.914;8.420;2023-05-18T07:29:01;4.73;;;2.60;;
15708;SDS011;7954;51.914;8.420;2023-05-18T07:31:29;4.33;;;2.03;;
15708;SDS011;7954;51.914;8.420;2023-05-18T07:33:59;3.33;;;2.07;;
15708;SDS011;7954;51.914;8.420;2023-05-18T07:36:28;5.57;;;2.43;;
15708;SDS011;7954;51.914;8.420;2023-05-18T07:38:56;4.30;;;1.93;;
15708;SDS011;7954;51.914;8.420;2023-05-18T07:41:24;4.57;;;2.13;;
15708;SDS011;7954;51.914;8.420;2023-05-18T07:43:53;5.53;;;2.40;;
15708;SDS011;7954;51.914;8.420;2023-05-18T07:46:21;6.20;;;2.00;;
15708;SDS011;7954;51.914;8.420;2023-05-18T07:48:49;4.20;;;2.10;;
15708;SDS011;7954;51.914;8.420;2023-05-18T07:51:17;4.57;;;2.10;;
15708;SDS011;7954;51.914;8.420;2023-05-18T07:53:46;5.23;;;2.13;;
15708;SDS011;7954;51.914;8.420;2023-05-18T07:56:14;5.17;;;2.50;;
15708;SDS011;7954;51.914;8.420;2023-05-18T07:58:43;7.17;;;2.27;;
15708;SDS011;7954;51.914;8.420;2023-05-18T08:01:12;6.60;;;2.20;;
15708;SDS011;7954;51.914;8.420;2023-05-18T08:03:40;4.80;;;2.17;;
15708;SDS011;7954;51.914;8.420;2023-05-18T08:06:08;3.53;;;2.10;;
15708;SDS011;7954;51.914;8.420;2023-05-18T08:08:36;4.73;;;1.97;;
15708;SDS011;7954;51.914;8.420;2023-05-18T08:11:05;5.57;;;2.37;;
15708;SDS011;7954;51.914;8.420;2023-05-18T08:13:33;4.90;;;2.20;;
15708;SDS011;7954;51.914;8.420;2023-05-18T08:16:01;6.10;;;2.60;;
15708;SDS011;7954;51.914;8.420;2023-05-18T08:18:35;4.70;;;2.50;;
15708;SDS011;7954;51.914;8.420;2023-05-18T08:21:03;6.10;;;2.50;;
15708;SDS011;7954;51.914;8.420;2023-05-18T08:23:33;5.10;;;2.30;;
15708;SDS011;7954;51.914;8.420;2023-05-18T08:26:01;3.37;;;2.00;;
15708;SDS011;7954;51.914;8.420;2023-05-18T08:28:32;7.70;;;3.30;;
15708;SDS011;7954;51.914;8.420;2023-05-18T08:31:00;6.03;;;2.37;;
15708;SDS011;7954;51.914;8.420;2023-05-18T08:33:27;6.30;;;2.40;;
15708;SDS011;7954;51.914;8.420;2023-05-18T08:35:57;6.03;;;2.97;;
15708;SDS011;7954;51.914;8.420;2023-05-18T08:38:25;5.30;;;2.30;;
15708;SDS011;7954;51.914;8.420;2023-05-18T08:41:00;5.90;;;2.57;;
15708;SDS011;7954;51.914;8.420;2023-05-18T08:43:34;4.73;;;2.43;;
15708;SDS011;7954;51.914;8.420;2023-05-18T08:46:06;4.83;;;2.47;;
15708;SDS011;7954;51.914;8.420;2023-05-18T08:48:40;6.27;;;2.53;;
15708;SDS011;7954;51.914;8.420;2023-05-18T08:51:12;4.63;;;2.70;;
15708;SDS011;7954;51.914;8.420;2023-05-18T08:53:46;4.23;;;2.47;;
15708;SDS011;7954;51.914;8.420;2023-05-18T08:56:19;8.90;;;2.80;;
15708;SDS011;7954;51.914;8.420;2023-05-18T08:58:55;5.93;;;2.70;;
15708;SDS011;7954;51.914;8.420;2023-05-18T09:01:23;7.07;;;2.97;;
15708;SDS011;7954;51.914;8.420;2023-05-18T09:03:55;3.53;;;2.13;;
15708;SDS011;7954;51.914;8.420;2023-05-18T09:06:23;4.87;;;2.37;;
15708;SDS011;7954;51.914;8.420;2023-05-18T09:08:53;5.93;;;2.40;;
15708;SDS011;7954;51.914;8.420;2023-05-18T09:11:23;5.83;;;2.40;;
15708;SDS011;7954;51.914;8.420;2023-05-18T09:13:54;3.97;;;2.13;;
15708;SDS011;7954;51.914;8.420;2023-05-18T09:16:22;5.00;;;2.40;;
15708;SDS011;7954;51.914;8.420;2023-05-18T09:18:50;6.97;;;2.60;;
15708;SDS011;7954;51.914;8.420;2023-05-18T09:21:19;4.17;;;2.40;;
15708;SDS011;7954;51.914;8.420;2023-05-18T09:23:47;5.07;;;2.30;;
15708;SDS011;7954;51.914;8.420;2023-05-18T09:26:17;5.00;;;2.53;;
15708;SDS011;7954;51.914;8.420;2023-05-18T09:28:46;5.63;;;2.73;;
15708;SDS011;7954;51.914;8.420;2023-05-18T09:31:20;5.23;;;2.37;;
15708;SDS011;7954;51.914;8.420;2023-05-18T09:33:52;4.20;;;2.10;;
15708;SDS011;7954;51.914;8.420;2023-05-18T09:36:23;5.10;;;2.40;;
15708;SDS011;7954;51.914;8.420;2023-05-18T09:38:52;5.00;;;2.70;;
15708;SDS011;7954;51.914;8.420;2023-05-18T09:41:19;5.27;;;2.70;;
15708;SDS011;7954;51.914;8.420;2023-05-18T09:43:48;5.97;;;2.70;;
15708;SDS011;7954;51.914;8.420;2023-05-18T09:46:17;4.97;;;2.63;;
15708;SDS011;7954;51.914;8.420;2023-05-18T09:48:49;5.10;;;2.23;;
15708;SDS011;7954;51.914;8.420;2023-05-18T09:51:20;5.50;;;2.23;;
15708;SDS011;7954;51.914;8.420;2023-05-18T09:53:52;6.37;;;2.60;;
15708;SDS011;7954;51.914;8.420;2023-05-18T09:56:21;4.83;;;2.30;;
15708;SDS011;7954;51.914;8.420;2023-05-18T09:58:49;6.77;;;2.93;;
15708;SDS011;7954;51.914;8.420;2023-05-18T10:01:18;3.93;;;2.30;;
15708;SDS011;7954;51.914;8.420;2023-05-18T10:03:47;4.07;;;2.33;;
15708;SDS011;7954;51.914;8.420;2023-05-18T10:06:18;4.67;;;2.57;;
15708;SDS011;7954;51.914;8.420;2023-05-18T10:08:47;4.70;;;2.50;;
15708;SDS011;7954;51.914;8.420;2023-05-18T10:11:16;4.60;;;2.40;;
15708;SDS011;7954;51.914;8.420;2023-05-18T10:13:51;6.80;;;3.03;;
15708;SDS011;7954;51.914;8.420;2023-05-18T10:16:20;6.60;;;3.17;;
15708;SDS011;7954;51.914;8.420;2023-05-18T10:18:51;5.77;;;2.83;;
15708;SDS011;7954;51.914;8.420;2023-05-18T10:21:22;4.23;;;2.40;;
15708;SDS011;7954;51.914;8.420;2023-05-18T10:23:50;4.30;;;2.03;;
15708;SDS011;7954;51.914;8.420;2023-05-18T10:26:19;4.73;;;2.23;;
15708;SDS011;7954;51.914;8.420;2023-05-18T10:28:52;4.83;;;2.30;;
15708;SDS011;7954;51.914;8.420;2023-05-18T10:31:22;4.80;;;2.60;;
15708;SDS011;7954;51.914;8.420;2023-05-18T10:33:55;4.37;;;2.50;;
15708;SDS011;7954;51.914;8.420;2023-05-18T10:36:25;3.90;;;1.97;;
15708;SDS011;7954;51.914;8.420;2023-05-18T10:38:55;3.47;;;2.13;;
15708;SDS011;7954;51.914;8.420;2023-05-18T10:41:26;4.13;;;2.70;;
15708;SDS011;7954;51.914;8.420;2023-05-18T10:43:55;3.93;;;2.30;;
15708;SDS011;7954;51.914;8.420;2023-05-18T10:46:29;4.87;;;2.33;;
15708;SDS011;7954;51.914;8.420;2023-05-18T10:48:59;5.73;;;2.40;;
15708;SDS011;7954;51.914;8.420;2023-05-18T10:51:28;6.13;;;2.70;;
15708;SDS011;7954;51.914;8.420;2023-05-18T10:53:57;5.10;;;2.47;;
15708;SDS011;7954;51.914;8.420;2023-05-18T10:56:38;6.33;;;2.50;;
15708;SDS011;7954;51.914;8.420;2023-05-18T10:59:10;5.33;;;2.33;;
15708;SDS011;7954;51.914;8.420;2023-05-18T11:01:39;4.47;;;2.20;;
15708;SDS011;7954;51.914;8.420;2023-05-18T11:04:10;4.07;;;2.20;;
15708;SDS011;7954;51.914;8.420;2023-05-18T11:06:38;4.30;;;2.37;;
15708;SDS011;7954;51.914;8.420;2023-05-18T11:09:06;5.97;;;2.33;;
15708;SDS011;7954;51.914;8.420;2023-05-18T11:11:49;7.67;;;2.50;;
15708;SDS011;7954;51.914;8.420;2023-05-18T11:14:23;4.93;;;2.40;;
15708;SDS011;7954;51.914;8.420;2023-05-18T11:16:53;9.03;;;2.60;;
15708;SDS011;7954;51.914;8.420;2023-05-18T11:23:00;5.30;;;2.40;;
15708;SDS011;7954;51.914;8.420;2023-05-18T11:25:39;5.00;;;2.43;;
15708;SDS011;7954;51.914;8.420;2023-05-18T11:28:10;5.30;;;2.70;;
15708;SDS011;7954;51.914;8.420;2023-05-18T11:30:44;5.00;;;2.20;;
15708;SDS011;7954;51.914;8.420;2023-05-18T11:33:14;5.93;;;2.60;;
15708;SDS011;7954;51.914;8.420;2023-05-18T11:35:57;3.43;;;2.13;;
15708;SDS011;7954;51.914;8.420;2023-05-18T11:38:46;5.37;;;2.67;;
15708;SDS011;7954;51.914;8.420;2023-05-18T11:41:28;4.40;;;2.47;;
15708;SDS011;7954;51.914;8.420;2023-05-18T11:46:51;3.23;;;2.30;;
15708;SDS011;7954;51.914;8.420;2023-05-18T11:49:21;5.20;;;2.70;;
15708;SDS011;7954;51.914;8.420;2023-05-18T11:51:54;3.87;;;2.27;;
15708;SDS011;7954;51.914;8.420;2023-05-18T11:54:33;3.80;;;2.23;;
15708;SDS011;7954;51.914;8.420;2023-05-18T11:57:06;6.50;;;2.30;;
15708;SDS011;7954;51.914;8.420;2023-05-18T11:59:37;3.80;;;2.30;;
15708;SDS011;7954;51.914;8.420;2023-05-18T12:02:06;5.10;;;2.67;;
15708;SDS011;7954;51.914;8.420;2023-05-18T12:04:43;4.93;;;2.67;;
15708;SDS011;7954;51.914;8.420;2023-05-18T12:07:13;4.90;;;2.40;;
15708;SDS011;7954;51.914;8.420;2023-05-18T12:09:43;3.67;;;2.10;;
15708;SDS011;7954;51.914;8.420;2023-05-18T12:12:13;5.43;;;2.17;;
15708;SDS011;7954;51.914;8.420;2023-05-18T12:14:46;2.97;;;1.90;;
15708;SDS011;7954;51.914;8.420;2023-05-18T12:17:20;4.17;;;2.70;;
15708;SDS011;7954;51.914;8.420;2023-05-18T12:19:49;6.27;;;2.53;;
15708;SDS011;7954;51.914;8.420;2023-05-18T12:22:17;3.67;;;2.13;;
15708;SDS011;7954;51.914;8.420;2023-05-18T12:24:49;5.43;;;2.93;;
15708;SDS011;7954;51.914;8.420;2023-05-18T12:27:19;4.20;;;2.60;;
15708;SDS011;7954;51.914;8.420;2023-05-18T12:29:48;5.23;;;2.47;;
15708;SDS011;7954;51.914;8.420;2023-05-18T12:32:16;4.90;;;2.27;;
15708;SDS011;7954;51.914;8.420;2023-05-18T12:34:45;3.93;;;2.37;;
15708;SDS011;7954;51.914;8.420;2023-05-18T12:37:13;4.73;;;2.40;;
15708;SDS011;7954;51.914;8.420;2023-05-18T12:39:42;3.60;;;2.27;;
15708;SDS011;7954;51.914;8.420;2023-05-18T12:42:12;3.67;;;2.10;;
15708;SDS011;7954;51.914;8.420;2023-05-18T12:44:41;4.90;;;2.43;;
15708;SDS011;7954;51.914;8.420;2023-05-18T12:47:10;4.57;;;2.00;;
15708;SDS011;7954;51.914;8.420;2023-05-18T12:49:40;4.65;;;2.80;;
15708;SDS011;7954;51.914;8.420;2023-05-18T12:52:09;4.18;;;2.30;;
15708;SDS011;7954;51.914;8.420;2023-05-18T12:54:48;5.45;;;2.42;;
15708;SDS011;7954;51.914;8.420;2023-05-18T12:57:22;4.82;;;2.42;;
15708;SDS011;7954;51.914;8.420;2023-05-18T12:59:52;4.03;;;2.35;;
15708;SDS011;7954;51.914;8.420;2023-05-18T13:02:27;3.97;;;2.55;;
15708;SDS011;7954;51.914;8.420;2023-05-18T13:05:04;5.40;;;2.60;;
15708;SDS011;7954;51.914;8.420;2023-05-18T13:07:34;3.78;;;2.35;;
15708;SDS011;7954;51.914;8.420;2023-05-18T13:10:07;3.42;;;2.45;;
15708;SDS011;7954;51.914;8.420;2023-05-18T13:12:41;4.82;;;2.45;;
15708;SDS011;7954;51.914;8.420;2023-05-18T13:15:11;3.90;;;2.33;;
15708;SDS011;7954;51.914;8.420;2023-05-18T13:20:31;7.13;;;2.50;;
15708;SDS011;7954;51.914;8.420;2023-05-18T13:23:03;2.97;;;2.30;;
15708;SDS011;7954;51.914;8.420;2023-05-18T13:25:32;3.58;;;2.55;;
15708;SDS011;7954;51.914;8.420;2023-05-18T13:28:01;4.70;;;2.45;;
15708;SDS011;7954;51.914;8.420;2023-05-18T13:30:30;4.45;;;2.75;;
15708;SDS011;7954;51.914;8.420;2023-05-18T13:32:59;3.47;;;2.60;;
15708;SDS011;7954;51.914;8.420;2023-05-18T13:35:28;5.40;;;2.80;;
15708;SDS011;7954;51.914;8.420;2023-05-18T13:37:56;3.08;;;2.28;;
15708;SDS011;7954;51.914;8.420;2023-05-18T13:40:24;4.63;;;2.75;;
15708;SDS011;7954;51.914;8.420;2023-05-18T13:42:53;4.57;;;2.72;;
15708;SDS011;7954;51.914;8.420;2023-05-18T13:45:23;3.38;;;2.30;;
15708;SDS011;7954;51.914;8.420;2023-05-18T13:47:51;6.50;;;2.70;;
15708;SDS011;7954;51.914;8.420;2023-05-18T13:50:20;3.40;;;2.60;;
15708;SDS011;7954;51.914;8.420;2023-05-18T13:52:48;4.95;;;2.90;;
15708;SDS011;7954;51.914;8.420;2023-05-18T13:55:16;3.15;;;2.47;;
15708;SDS011;7954;51.914;8.420;2023-05-18T13:57:44;4.47;;;2.55;;
15708;SDS011;7954;51.914;8.420;2023-05-18T14:00:14;3.65;;;2.50;;
15708;SDS011;7954;51.914;8.420;2023-05-18T14:02:44;3.78;;;2.50;;
15708;SDS011;7954;51.914;8.420;2023-05-18T14:05:13;3.60;;;2.50;;
15708;SDS011;7954;51.914;8.420;2023-05-18T14:07:41;4.93;;;2.70;;
15708;SDS011;7954;51.914;8.420;2023-05-18T14:10:10;3.65;;;2.58;;
15708;SDS011;7954;51.914;8.420;2023-05-18T14:12:40;3.28;;;2.83;;
15708;SDS011;7954;51.914;8.420;2023-05-18T14:15:09;3.17;;;2.83;;
15708;SDS011;7954;51.914;8.420;2023-05-18T14:17:39;4.45;;;2.75;;
15708;SDS011;7954;51.914;8.420;2023-05-18T14:20:09;5.75;;;2.90;;
15708;SDS011;7954;51.914;8.420;2023-05-18T14:22:38;4.55;;;3.20;;
15708;SDS011;7954;51.914;8.420;2023-05-18T14:25:07;3.35;;;3.05;;
15708;SDS011;7954;51.914;8.420;2023-05-18T14:27:35;3.40;;;2.85;;
15708;SDS011;7954;51.914;8.420;2023-05-18T14:30:03;6.80;;;3.10;;
15708;SDS011;7954;51.914;8.420;2023-05-18T14:32:31;3.78;;;3.10;;
15708;SDS011;7954;51.914;8.420;2023-05-18T14:34:59;5.72;;;3.40;;
15708;SDS011;7954;51.914;8.420;2023-05-18T14:37:29;5.13;;;3.25;;
15708;SDS011;7954;51.914;8.420;2023-05-18T14:39:58;3.85;;;2.97;;
15708;SDS011;7954;51.914;8.420;2023-05-18T14:42:26;4.47;;;2.50;;
15708;SDS011;7954;51.914;8.420;2023-05-18T14:44:54;3.40;;;2.97;;
15708;SDS011;7954;51.914;8.420;2023-05-18T14:47:22;3.30;;;2.90;;
15708;SDS011;7954;51.914;8.420;2023-05-18T14:49:50;5.38;;;3.10;;
15708;SDS011;7954;51.914;8.420;2023-05-18T14:52:17;5.20;;;3.20;;
15708;SDS011;7954;51.914;8.420;2023-05-18T14:54:47;4.82;;;3.45;;
15708;SDS011;7954;51.914;8.420;2023-05-18T14:57:15;4.63;;;3.45;;
15708;SDS011;7954;51.914;8.420;2023-05-18T14:59:43;4.18;;;2.88;;
15708;SDS011;7954;51.914;8.420;2023-05-18T15:02:11;4.05;;;3.58;;
15708;SDS011;7954;51.914;8.420;2023-05-18T15:04:39;3.50;;;2.85;;
15708;SDS011;7954;51.914;8.420;2023-05-18T15:07:07;3.75;;;3.08;;
15708;SDS011;7954;51.914;8.420;2023-05-18T15:09:35;4.57;;;3.47;;
15708;SDS011;7954;51.914;8.420;2023-05-18T15:12:05;4.32;;;3.40;;
15708;SDS011;7954;51.914;8.420;2023-05-18T15:14:33;4.60;;;3.47;;
15708;SDS011;7954;51.914;8.420;2023-05-18T15:17:03;5.38;;;3.95;;
15708;SDS011;7954;51.914;8.420;2023-05-18T15:19:32;4.72;;;3.40;;
15708;SDS011;7954;51.914;8.420;2023-05-18T15:22:01;4.35;;;3.00;;
15708;SDS011;7954;51.914;8.420;2023-05-18T15:24:31;4.72;;;3.45;;